createdAt,value
2022-08-22T00:00:32.300Z,0
2022-08-22T00:01:32.280Z,0
2022-08-22T00:02:32.314Z,0
2022-08-22T00:02:55.559Z,0
2022-08-22T00:02:57.843Z,0
2022-08-22T00:02:58.998Z,0
2022-08-22T00:03:00.887Z,0
2022-08-22T00:03:12.735Z,0
2022-08-22T00:03:32.301Z,0
2022-08-22T00:04:33.347Z,0
2022-08-22T00:05:32.278Z,0
2022-08-22T00:06:32.276Z,0
2022-08-22T00:07:32.298Z,0
2022-08-22T00:08:32.366Z,0
2022-08-22T00:09:32.267Z,0
2022-08-22T00:10:32.301Z,0
2022-08-22T00:11:32.282Z,0
2022-08-22T00:12:32.319Z,0
2022-08-22T00:13:32.296Z,0
2022-08-22T00:14:32.313Z,0
2022-08-22T00:15:43.134Z,0
2022-08-22T00:16:32.309Z,0
2022-08-22T00:17:32.297Z,0
2022-08-22T00:18:32.397Z,0
2022-08-22T00:19:32.294Z,0
2022-08-22T00:20:32.293Z,0
2022-08-22T00:21:32.281Z,0
2022-08-22T00:22:32.277Z,0
2022-08-22T00:23:32.286Z,0
2022-08-22T00:24:32.305Z,0
2022-08-22T00:25:32.277Z,0
2022-08-22T00:26:32.289Z,0
2022-08-22T00:27:32.276Z,0
2022-08-22T00:28:32.311Z,0
2022-08-22T00:29:32.259Z,0
2022-08-22T00:30:32.265Z,0
2022-08-22T00:31:32.257Z,0
2022-08-22T00:32:32.279Z,0
2022-08-22T00:33:32.283Z,0
2022-08-22T00:34:32.274Z,0
2022-08-22T00:35:32.258Z,0
2022-08-22T00:36:32.275Z,0
2022-08-22T00:37:32.326Z,0
2022-08-22T00:38:32.311Z,0
2022-08-22T00:39:32.279Z,0
2022-08-22T00:40:32.297Z,0
2022-08-22T00:41:32.384Z,0
2022-08-22T00:42:32.413Z,0
2022-08-22T00:43:32.292Z,0
2022-08-22T00:44:32.278Z,0
2022-08-22T00:45:32.287Z,0
2022-08-22T00:46:32.279Z,0
2022-08-22T00:47:32.288Z,0
2022-08-22T00:48:32.279Z,0
2022-08-22T00:49:32.274Z,0
2022-08-22T00:50:32.253Z,0
2022-08-22T00:51:32.274Z,0
2022-08-22T00:52:32.275Z,0
2022-08-22T00:53:32.396Z,0
2022-08-22T00:54:32.332Z,0
2022-08-22T00:55:34.941Z,0
2022-08-22T00:56:32.264Z,0
2022-08-22T00:57:32.374Z,0
2022-08-22T00:58:32.317Z,0
2022-08-22T00:59:32.314Z,0
2022-08-22T01:00:35.073Z,0
2022-08-22T01:01:32.316Z,0
2022-08-22T01:02:32.288Z,0
2022-08-22T01:03:32.285Z,0
2022-08-22T01:04:32.292Z,0
2022-08-22T01:05:32.305Z,0
2022-08-22T01:06:32.314Z,0
2022-08-22T01:07:38.316Z,0
2022-08-22T01:08:32.257Z,0
2022-08-22T01:09:32.276Z,0
2022-08-22T01:10:32.642Z,0
2022-08-22T01:11:32.326Z,0
2022-08-22T01:12:32.262Z,0
2022-08-22T01:13:32.265Z,0
2022-08-22T01:14:34.348Z,0
2022-08-22T01:15:32.393Z,0
2022-08-22T01:16:32.262Z,0
2022-08-22T01:17:32.274Z,0
2022-08-22T01:18:32.281Z,0
2022-08-22T01:19:32.315Z,0
2022-08-22T01:20:32.263Z,0
2022-08-22T01:21:32.293Z,0
2022-08-22T01:22:32.284Z,0
2022-08-22T01:23:32.297Z,0
2022-08-22T01:24:32.287Z,0
2022-08-22T01:25:32.275Z,0
2022-08-22T01:26:32.278Z,0
2022-08-22T01:27:32.334Z,0
2022-08-22T01:28:32.285Z,0
2022-08-22T01:29:32.283Z,0
2022-08-22T01:30:32.260Z,0
2022-08-22T01:31:32.273Z,0
2022-08-22T01:32:32.354Z,0
2022-08-22T01:33:32.308Z,0
2022-08-22T01:34:32.268Z,0
2022-08-22T01:35:32.300Z,0
2022-08-22T01:36:32.275Z,0
2022-08-22T01:37:32.279Z,0
2022-08-22T01:38:32.279Z,0
2022-08-22T01:39:32.337Z,0
2022-08-22T01:40:32.569Z,0
2022-08-22T01:41:32.431Z,0
2022-08-22T01:42:32.461Z,0
2022-08-22T01:44:00.118Z,0
2022-08-22T01:44:32.464Z,0
2022-08-22T01:45:32.443Z,0
2022-08-22T01:46:32.410Z,0
2022-08-22T01:47:37.364Z,0
2022-08-22T01:48:32.452Z,0
2022-08-22T01:49:32.266Z,0
2022-08-22T01:50:32.481Z,0
2022-08-22T01:51:32.293Z,0
2022-08-22T01:52:32.257Z,0
2022-08-22T01:53:32.291Z,0
2022-08-22T01:54:32.277Z,0
2022-08-22T01:55:32.267Z,0
2022-08-22T01:56:32.258Z,0
2022-08-22T01:57:32.295Z,0
2022-08-22T01:58:32.285Z,0
2022-08-22T01:59:34.019Z,0
2022-08-22T02:00:34.734Z,0
2022-08-22T02:01:32.285Z,0
2022-08-22T02:02:32.241Z,0
2022-08-22T02:03:32.290Z,0
2022-08-22T02:04:32.272Z,0
2022-08-22T02:05:32.265Z,0
2022-08-22T02:06:32.297Z,0
2022-08-22T02:07:32.380Z,0
2022-08-22T02:08:32.277Z,0
2022-08-22T02:09:32.268Z,0
2022-08-22T02:10:32.273Z,0
2022-08-22T02:11:32.334Z,0
2022-08-22T02:12:32.284Z,0
2022-08-22T02:13:32.273Z,0
2022-08-22T02:14:32.294Z,0
2022-08-22T02:15:32.257Z,0
2022-08-22T02:16:32.320Z,0
2022-08-22T02:17:32.291Z,0
2022-08-22T02:18:32.270Z,0
2022-08-22T02:19:32.296Z,0
2022-08-22T02:20:32.244Z,0
2022-08-22T02:21:32.324Z,0
2022-08-22T02:22:32.286Z,0
2022-08-22T02:23:32.295Z,0
2022-08-22T02:24:32.247Z,0
2022-08-22T02:25:32.257Z,0
2022-08-22T02:26:32.252Z,0
2022-08-22T02:27:32.276Z,0
2022-08-22T02:28:32.246Z,0
2022-08-22T02:29:32.294Z,0
2022-08-22T02:30:32.256Z,0
2022-08-22T02:31:32.240Z,0
2022-08-22T02:32:32.241Z,0
2022-08-22T02:33:32.279Z,0
2022-08-22T02:34:32.253Z,0
2022-08-22T02:35:32.323Z,0
2022-08-22T02:36:32.269Z,0
2022-08-22T02:37:32.372Z,0
2022-08-22T02:38:32.281Z,0
2022-08-22T02:39:32.281Z,0
2022-08-22T02:40:32.251Z,0
2022-08-22T02:41:32.243Z,0
2022-08-22T02:42:32.301Z,0
2022-08-22T02:43:32.263Z,0
2022-08-22T02:44:32.272Z,0
2022-08-22T02:45:32.272Z,0
2022-08-22T02:46:32.233Z,0
2022-08-22T02:47:32.292Z,0
2022-08-22T02:48:32.263Z,0
2022-08-22T02:49:32.276Z,0
2022-08-22T02:50:32.255Z,0
2022-08-22T02:51:32.353Z,0
2022-08-22T02:52:32.277Z,0
2022-08-22T02:53:32.276Z,0
2022-08-22T02:54:32.272Z,0
2022-08-22T02:55:32.277Z,0
2022-08-22T02:56:32.407Z,0
2022-08-22T02:57:33.814Z,0
2022-08-22T02:58:32.250Z,0
2022-08-22T02:59:32.258Z,0
2022-08-22T03:00:33.296Z,0
2022-08-22T03:01:32.280Z,0
2022-08-22T03:02:32.255Z,0
2022-08-22T03:03:32.365Z,0
2022-08-22T03:04:32.281Z,0
2022-08-22T03:05:32.281Z,0
2022-08-22T03:06:32.354Z,0
2022-08-22T03:07:32.437Z,0
2022-08-22T03:08:32.292Z,0
2022-08-22T03:09:32.243Z,0
2022-08-22T03:10:32.393Z,0
2022-08-22T03:11:32.478Z,0
2022-08-22T03:12:32.273Z,0
2022-08-22T03:13:32.420Z,0
2022-08-22T03:14:32.330Z,0
2022-08-22T03:15:32.364Z,0
2022-08-22T03:16:32.305Z,0
2022-08-22T03:17:32.398Z,0
2022-08-22T03:18:32.394Z,0
2022-08-22T03:19:32.421Z,0
2022-08-22T03:20:32.371Z,0
2022-08-22T03:21:32.418Z,0
2022-08-22T03:22:32.387Z,0
2022-08-22T03:23:32.408Z,0
2022-08-22T03:24:32.316Z,0
2022-08-22T03:25:32.303Z,0
2022-08-22T03:26:32.315Z,0
2022-08-22T03:27:33.126Z,0
2022-08-22T03:28:32.320Z,0
2022-08-22T03:29:32.283Z,0
2022-08-22T03:30:32.266Z,0
2022-08-22T03:31:33.294Z,0.85
2022-08-22T03:32:32.390Z,0
2022-08-22T03:33:32.668Z,0.36
2022-08-22T03:34:32.231Z,0
2022-08-22T03:35:32.286Z,0.36
2022-08-22T03:36:32.250Z,0.85
2022-08-22T03:37:32.261Z,0.85
2022-08-22T03:38:32.254Z,0.85
2022-08-22T03:39:32.264Z,1.22
2022-08-22T03:40:32.359Z,1.22
2022-08-22T03:41:32.247Z,1.22
2022-08-22T03:42:32.370Z,2.08
2022-08-22T03:43:32.255Z,2.57
2022-08-22T03:44:32.271Z,2.08
2022-08-22T03:45:32.267Z,2.57
2022-08-22T03:46:32.230Z,2.57
2022-08-22T03:47:32.254Z,2.08
2022-08-22T03:48:32.285Z,2.57
2022-08-22T03:49:32.290Z,3.43
2022-08-22T03:50:32.208Z,2.94
2022-08-22T03:51:32.256Z,2.94
2022-08-22T03:52:32.268Z,4.28
2022-08-22T03:53:32.279Z,3.43
2022-08-22T03:54:32.253Z,3.79
2022-08-22T03:55:32.266Z,3.43
2022-08-22T03:56:32.269Z,3.43
2022-08-22T03:57:32.272Z,4.28
2022-08-22T03:58:32.233Z,4.77
2022-08-22T03:59:32.246Z,4.28
2022-08-22T04:00:32.308Z,4.28
2022-08-22T04:01:32.253Z,4.77
2022-08-22T04:02:43.182Z,5.14
2022-08-22T04:03:32.244Z,5.14
2022-08-22T04:04:32.358Z,4.77
2022-08-22T04:05:32.309Z,4.77
2022-08-22T04:06:32.245Z,4.77
2022-08-22T04:07:33.436Z,5.99
2022-08-22T04:08:32.303Z,5.14
2022-08-22T04:09:32.257Z,5.63
2022-08-22T04:10:32.236Z,5.99
2022-08-22T04:11:32.264Z,6.48
2022-08-22T04:12:32.387Z,6.48
2022-08-22T04:13:32.256Z,6.48
2022-08-22T04:14:32.273Z,6.85
2022-08-22T04:15:32.287Z,7.34
2022-08-22T04:16:32.234Z,7.34
2022-08-22T04:17:32.279Z,8.19
2022-08-22T04:18:33.407Z,8.19
2022-08-22T04:19:32.269Z,9.05
2022-08-22T04:20:32.253Z,7.7
2022-08-22T04:21:32.323Z,7.7
2022-08-22T04:22:32.247Z,7.7
2022-08-22T04:23:32.296Z,8.19
2022-08-22T04:24:32.293Z,7.7
2022-08-22T04:25:32.241Z,7.34
2022-08-22T04:26:32.240Z,7.34
2022-08-22T04:27:32.253Z,8.19
2022-08-22T04:28:32.258Z,7.7
2022-08-22T04:29:32.238Z,8.19
2022-08-22T04:30:32.250Z,8.19
2022-08-22T04:31:32.279Z,9.05
2022-08-22T04:32:32.332Z,8.19
2022-08-22T04:33:32.253Z,9.54
2022-08-22T04:34:32.248Z,9.91
2022-08-22T04:35:32.255Z,9.54
2022-08-22T04:36:32.302Z,9.05
2022-08-22T04:37:32.248Z,9.54
2022-08-22T04:38:32.236Z,10.39
2022-08-22T04:39:32.256Z,10.77
2022-08-22T04:40:32.263Z,11.25
2022-08-22T04:41:32.274Z,11.62
2022-08-22T04:42:33.295Z,12.97
2022-08-22T04:43:32.251Z,12.97
2022-08-22T04:44:32.265Z,13.82
2022-08-22T04:45:32.275Z,13.82
2022-08-22T04:46:36.703Z,14.31
2022-08-22T04:47:32.260Z,14.68
2022-08-22T04:48:32.253Z,14.68
2022-08-22T04:49:32.252Z,13.82
2022-08-22T04:50:32.274Z,15.53
2022-08-22T04:51:32.245Z,14.68
2022-08-22T04:52:32.254Z,15.17
2022-08-22T04:53:32.456Z,16.02
2022-08-22T04:54:32.260Z,16.02
2022-08-22T04:55:32.257Z,16.02
2022-08-22T04:56:32.253Z,16.02
2022-08-22T04:57:32.237Z,16.39
2022-08-22T04:58:32.322Z,15.53
2022-08-22T04:59:33.588Z,16.39
2022-08-22T05:00:32.244Z,16.88
2022-08-22T05:01:33.076Z,16.39
2022-08-22T05:02:32.275Z,16.88
2022-08-22T05:03:32.238Z,16.88
2022-08-22T05:04:32.263Z,16.88
2022-08-22T05:05:32.285Z,17.73
2022-08-22T05:06:32.271Z,17.25
2022-08-22T05:07:35.846Z,22.51
2022-08-22T05:08:32.315Z,39.88
2022-08-22T05:09:32.265Z,66.31
2022-08-22T05:10:32.245Z,74.5
2022-08-22T05:11:32.241Z,77.56
2022-08-22T05:12:32.834Z,79.27
2022-08-22T05:13:32.256Z,82.33
2022-08-22T05:14:32.318Z,83.19
2022-08-22T05:15:32.220Z,84.53
2022-08-22T05:16:32.294Z,85.88
2022-08-22T05:17:32.262Z,83.19
2022-08-22T05:18:32.237Z,71.93
2022-08-22T05:19:32.467Z,64.1
2022-08-22T05:20:32.282Z,52.85
2022-08-22T05:21:32.277Z,46.36
2022-08-22T05:22:32.187Z,38.17
2022-08-22T05:23:32.252Z,28.63
2022-08-22T05:24:32.236Z,32.42
2022-08-22T05:25:32.222Z,40.73
2022-08-22T05:26:32.267Z,39.02
2022-08-22T05:27:32.230Z,51.99
2022-08-22T05:28:32.273Z,48.07
2022-08-22T05:29:32.295Z,39.39
2022-08-22T05:30:32.257Z,51.5
2022-08-22T05:31:32.241Z,78.05
2022-08-22T05:32:32.269Z,101.41
2022-08-22T05:33:32.250Z,119.64
2022-08-22T05:34:32.306Z,120.99
2022-08-22T05:35:32.221Z,117.44
2022-08-22T05:36:32.235Z,115.36
2022-08-22T05:37:32.237Z,127.47
2022-08-22T05:38:32.270Z,135.67
2022-08-22T05:39:32.215Z,137.87
2022-08-22T05:40:32.473Z,139.22
2022-08-22T05:41:32.252Z,143.13
2022-08-22T05:42:32.254Z,142.27
2022-08-22T05:43:32.237Z,147.41
2022-08-22T05:44:32.262Z,148.27
2022-08-22T05:45:32.285Z,150.47
2022-08-22T05:46:32.291Z,151.33
2022-08-22T05:47:32.240Z,153.9
2022-08-22T05:48:32.228Z,158.67
2022-08-22T05:49:32.274Z,157.81
2022-08-22T05:50:32.281Z,161.36
2022-08-22T05:51:32.256Z,161.73
2022-08-22T05:52:32.279Z,164.78
2022-08-22T05:53:32.252Z,169.07
2022-08-22T05:54:34.450Z,172.61
2022-08-22T05:55:32.452Z,176.53
2022-08-22T05:56:32.287Z,179.1
2022-08-22T05:57:32.249Z,182.53
2022-08-22T05:58:32.271Z,184.73
2022-08-22T05:59:32.251Z,189.13
2022-08-22T06:00:32.248Z,188.64
2022-08-22T06:01:32.286Z,191.21
2022-08-22T06:02:32.255Z,193.9
2022-08-22T06:03:32.238Z,195.61
2022-08-22T06:04:32.262Z,197.32
2022-08-22T06:05:33.296Z,198.67
2022-08-22T06:06:32.255Z,202.1
2022-08-22T06:07:32.211Z,207.36
2022-08-22T06:08:32.260Z,206.38
2022-08-22T06:09:35.640Z,207.36
2022-08-22T06:10:32.274Z,160.51
2022-08-22T06:11:34.032Z,110.59
2022-08-22T06:12:32.318Z,78.41
2022-08-22T06:13:32.385Z,117.07
2022-08-22T06:14:32.714Z,72.42
2022-08-22T06:15:32.204Z,78.05
2022-08-22T06:16:32.263Z,76.34
2022-08-22T06:17:33.250Z,73.65
2022-08-22T06:18:32.273Z,54.19
2022-08-22T06:19:32.217Z,60.68
2022-08-22T06:20:32.242Z,67.16
2022-08-22T06:21:37.665Z,98.36
2022-08-22T06:22:32.248Z,77.19
2022-08-22T06:23:32.222Z,68.51
2022-08-22T06:24:32.242Z,61.53
2022-08-22T06:25:32.324Z,68.87
2022-08-22T06:26:32.244Z,64.96
2022-08-22T06:27:32.363Z,90.16
2022-08-22T06:28:32.248Z,116.58
2022-08-22T06:29:32.252Z,87.59
2022-08-22T06:30:32.277Z,76.34
2022-08-22T06:31:32.234Z,58.48
2022-08-22T06:32:58.343Z,69.73
2022-08-22T06:33:32.309Z,62.02
2022-08-22T06:34:32.422Z,38.17
2022-08-22T06:35:32.248Z,46.36
2022-08-22T06:36:32.267Z,52.85
2022-08-22T06:37:32.267Z,58.48
2022-08-22T06:38:32.264Z,70.71
2022-08-22T06:39:32.221Z,71.56
2022-08-22T06:40:32.418Z,61.17
2022-08-22T06:41:32.255Z,42.94
2022-08-22T06:42:32.263Z,46.36
2022-08-22T06:43:32.209Z,53.34
2022-08-22T06:44:32.374Z,42.45
2022-08-22T06:45:32.279Z,37.19
2022-08-22T06:46:32.266Z,39.02
2022-08-22T06:47:32.239Z,58.11
2022-08-22T06:48:32.240Z,62.02
2022-08-22T06:49:32.287Z,71.56
2022-08-22T06:50:32.355Z,66.8
2022-08-22T06:51:32.278Z,55.9
2022-08-22T06:52:32.235Z,62.02
2022-08-22T06:53:32.276Z,65.94
2022-08-22T06:54:34.372Z,80.62
2022-08-22T06:55:32.241Z,80.62
2022-08-22T06:56:32.228Z,78.05
2022-08-22T06:57:32.241Z,81.48
2022-08-22T06:58:34.364Z,72.42
2022-08-22T06:59:32.307Z,97.13
2022-08-22T07:00:32.233Z,96.65
2022-08-22T07:01:32.349Z,45.02
2022-08-22T07:02:32.262Z,64.59
2022-08-22T07:03:32.227Z,72.79
2022-08-22T07:04:32.238Z,123.19
2022-08-22T07:05:32.341Z,86.73
2022-08-22T07:06:32.230Z,77.56
2022-08-22T07:07:32.430Z,89.79
2022-08-22T07:08:36.005Z,97.5
2022-08-22T07:09:32.264Z,69.36
2022-08-22T07:10:32.335Z,48.56
2022-08-22T07:11:32.244Z,54.19
2022-08-22T07:12:32.224Z,68.02
2022-08-22T07:13:32.219Z,61.53
2022-08-22T07:14:32.228Z,50.65
2022-08-22T07:15:32.251Z,38.17
2022-08-22T07:16:32.244Z,70.71
2022-08-22T07:17:32.224Z,160.02
2022-08-22T07:18:32.233Z,161.36
2022-08-22T07:19:32.267Z,188.64
2022-08-22T07:20:32.244Z,245.9
2022-08-22T07:21:34.235Z,188.64
2022-08-22T07:22:32.258Z,121.36
2022-08-22T07:23:32.243Z,88.45
2022-08-22T07:24:32.226Z,74.5
2022-08-22T07:25:32.260Z,111.44
2022-08-22T07:26:32.234Z,94.93
2022-08-22T07:27:32.266Z,179.1
2022-08-22T07:28:37.003Z,179.1
2022-08-22T07:29:32.575Z,322.23
2022-08-22T07:30:32.228Z,190.84
2022-08-22T07:31:32.230Z,298.86
2022-08-22T07:32:32.181Z,284.06
2022-08-22T07:33:32.258Z,169.07
2022-08-22T07:34:32.310Z,153.53
2022-08-22T07:35:32.249Z,98.36
2022-08-22T07:36:32.275Z,465.86
2022-08-22T07:37:32.231Z,452.03
2022-08-22T07:38:32.247Z,490.57
2022-08-22T07:39:32.247Z,502.68
2022-08-22T07:40:32.299Z,508.79
2022-08-22T07:41:32.227Z,516.99
2022-08-22T07:42:32.224Z,516.99
2022-08-22T07:43:32.242Z,464.14
2022-08-22T07:44:32.219Z,504.51
2022-08-22T07:45:32.252Z,498.4
2022-08-22T07:46:32.176Z,498.4
2022-08-22T07:47:32.270Z,492.28
2022-08-22T07:48:33.462Z,468.42
2022-08-22T07:49:37.432Z,486.28
2022-08-22T07:50:41.461Z,495.82
2022-08-22T07:51:45.472Z,497.05
2022-08-22T07:52:49.479Z,500.11
2022-08-22T07:53:53.411Z,503.65
2022-08-22T07:54:57.483Z,241.61
2022-08-22T07:56:01.449Z,476.25
2022-08-22T07:57:05.459Z,480.17
2022-08-22T07:58:09.383Z,485.43
2022-08-22T07:59:13.477Z,493.13
2022-08-22T08:00:18.566Z,491.91
2022-08-22T08:01:21.491Z,506.23
2022-08-22T08:02:25.404Z,521.4
2022-08-22T08:03:29.430Z,537.91
2022-08-22T08:04:34.878Z,541.82
2022-08-22T08:05:32.251Z,541.33
2022-08-22T08:06:32.251Z,543.05
2022-08-22T08:07:32.248Z,547.82
2022-08-22T08:08:32.231Z,551.37
2022-08-22T08:09:32.211Z,565.68
2022-08-22T08:10:32.234Z,578.65
2022-08-22T08:11:32.205Z,583.91
2022-08-22T08:12:32.254Z,582.08
2022-08-22T08:13:32.251Z,589.53
2022-08-22T08:14:32.229Z,591.62
2022-08-22T08:15:32.274Z,209.44
2022-08-22T08:16:32.234Z,361.25
2022-08-22T08:17:32.522Z,566.54
2022-08-22T08:18:33.036Z,150.47
2022-08-22T08:19:32.219Z,565.19
2022-08-22T08:20:32.236Z,272.81
2022-08-22T08:21:32.245Z,591.25
2022-08-22T08:22:32.258Z,345.72
2022-08-22T08:23:32.222Z,612.04
2022-08-22T08:24:39.908Z,596.87
2022-08-22T08:25:32.267Z,599.94
2022-08-22T08:26:32.216Z,608.99
2022-08-22T08:27:32.228Z,255.07
2022-08-22T08:28:32.240Z,341.81
2022-08-22T08:29:32.216Z,622.45
2022-08-22T08:30:32.286Z,157.44
2022-08-22T08:31:32.239Z,636.76
2022-08-22T08:32:32.255Z,640.67
2022-08-22T08:33:32.284Z,617.31
2022-08-22T08:34:32.243Z,615.96
2022-08-22T08:35:32.265Z,603.85
2022-08-22T08:36:32.229Z,598.22
2022-08-22T08:37:32.190Z,599.45
2022-08-22T08:38:32.228Z,614.62
2022-08-22T08:39:35.260Z,617.31
2022-08-22T08:40:32.254Z,611.68
2022-08-22T08:41:32.222Z,607.77
2022-08-22T08:42:32.341Z,617.67
2022-08-22T08:43:32.236Z,628.07
2022-08-22T08:44:32.249Z,621.59
2022-08-22T08:45:32.249Z,303.64
2022-08-22T08:46:32.243Z,632.84
2022-08-22T08:47:32.251Z,631.99
2022-08-22T08:48:32.296Z,632.84
2022-08-22T08:49:33.670Z,630.28
2022-08-22T08:50:32.444Z,630.28
2022-08-22T08:51:32.242Z,633.33
2022-08-22T08:52:32.244Z,632.48
2022-08-22T08:53:32.214Z,642.02
2022-08-22T08:54:32.228Z,641.16
2022-08-22T08:55:32.215Z,640.67
2022-08-22T08:56:32.252Z,285.78
2022-08-22T08:57:32.230Z,516.13
2022-08-22T08:58:32.214Z,236.35
2022-08-22T08:59:32.263Z,353.91
2022-08-22T09:00:32.197Z,503.65
2022-08-22T09:01:32.296Z,301.44
2022-08-22T09:03:32.274Z,634.55
2022-08-22T09:04:32.227Z,579.99
2022-08-22T09:05:32.192Z,316.61
2022-08-22T09:06:32.231Z,254.58
2022-08-22T09:07:32.269Z,262.78
2022-08-22T09:08:32.244Z,486.65
2022-08-22T09:09:32.208Z,401.63
2022-08-22T09:10:32.305Z,482.74
2022-08-22T09:11:32.241Z,365.17
2022-08-22T09:12:32.261Z,252.38
2022-08-22T09:13:34.451Z,496.2
2022-08-22T09:14:32.249Z,304.86
2022-08-22T09:15:32.223Z,557.85
2022-08-22T09:16:32.239Z,604.7
2022-08-22T09:17:32.215Z,86.24
2022-08-22T09:18:32.219Z,592.11
2022-08-22T09:19:32.252Z,310.61
2022-08-22T09:20:32.256Z,324.93
2022-08-22T09:21:32.210Z,110.96
2022-08-22T09:22:34.930Z,140.44
2022-08-22T09:23:32.296Z,418.51
2022-08-22T09:24:32.214Z,355.63
2022-08-22T09:25:38.454Z,110.96
2022-08-22T09:26:32.305Z,84.04
2022-08-22T09:27:32.231Z,86.24
2022-08-22T09:28:32.235Z,69.36
2022-08-22T09:29:32.246Z,79.27
2022-08-22T09:30:32.566Z,250.66
2022-08-22T09:31:47.433Z,124.41
2022-08-22T09:32:32.190Z,91.02
2022-08-22T09:33:32.502Z,113.65
2022-08-22T09:34:32.237Z,372.15
2022-08-22T09:35:32.238Z,329.2
2022-08-22T09:36:32.221Z,71.56
2022-08-22T09:37:32.232Z,330.92
2022-08-22T09:38:32.249Z,132.24
2022-08-22T09:39:32.239Z,112.3
2022-08-22T09:40:32.208Z,182.15
2022-08-22T09:41:32.212Z,317.46
2022-08-22T09:42:32.217Z,137.02
2022-08-22T09:43:33.717Z,76.7
2022-08-22T09:44:32.210Z,256.78
2022-08-22T09:45:32.243Z,136.16
2022-08-22T09:46:36.700Z,207.73
2022-08-22T09:47:32.855Z,225.1
2022-08-22T09:48:32.213Z,356.12
2022-08-22T09:49:32.306Z,160.87
2022-08-22T09:50:32.228Z,96.27
2022-08-22T09:51:33.320Z,185.58
2022-08-22T09:52:34.938Z,268.03
2022-08-22T09:53:32.294Z,125.76
2022-08-22T09:54:32.850Z,251.15
2022-08-22T09:55:35.206Z,97.13
2022-08-22T09:56:32.219Z,88.45
2022-08-22T09:57:32.217Z,99.7
2022-08-22T09:58:32.319Z,112.67
2022-08-22T09:59:33.693Z,179.1
2022-08-22T10:00:32.224Z,101.05
2022-08-22T10:01:32.822Z,103.61
2022-08-22T10:02:32.226Z,103.61
2022-08-22T10:03:32.630Z,109.24
2022-08-22T10:04:32.199Z,214.7
2022-08-22T10:05:40.571Z,166.13
2022-08-22T10:06:32.209Z,147.41
2022-08-22T10:07:32.238Z,104.96
2022-08-22T10:08:32.236Z,126.61
2022-08-22T10:09:32.271Z,101.41
2022-08-22T10:10:32.217Z,78.41
2022-08-22T10:11:32.251Z,68.87
2022-08-22T10:12:36.143Z,69.36
2022-08-22T10:13:32.241Z,125.27
2022-08-22T10:14:32.259Z,62.02
2022-08-22T10:15:32.231Z,57.62
2022-08-22T10:16:32.213Z,61.53
2022-08-22T10:17:32.227Z,57.25
2022-08-22T10:18:32.224Z,49.42
2022-08-22T10:19:32.245Z,47.71
2022-08-22T10:20:32.185Z,42.94
2022-08-22T10:21:32.214Z,57.62
2022-08-22T10:22:32.219Z,46.36
2022-08-22T10:23:32.216Z,50.28
2022-08-22T10:24:32.225Z,86.24
2022-08-22T10:25:32.284Z,91.87
2022-08-22T10:26:37.954Z,55.41
2022-08-22T10:27:32.256Z,89.79
2022-08-22T10:28:32.197Z,43.8
2022-08-22T10:29:32.211Z,119.27
2022-08-22T10:30:32.255Z,64.59
2022-08-22T10:31:32.256Z,41.59
2022-08-22T10:32:32.215Z,58.97
2022-08-22T10:33:32.195Z,66.8
2022-08-22T10:34:32.377Z,44.65
2022-08-22T10:35:33.695Z,40.73
2022-08-22T10:36:32.365Z,41.1
2022-08-22T10:37:32.407Z,41.96
2022-08-22T10:38:32.376Z,148.76
2022-08-22T10:39:32.558Z,39.39
2022-08-22T10:40:32.540Z,45.87
2022-08-22T10:41:32.351Z,46.73
2022-08-22T10:42:35.225Z,58.48
2022-08-22T10:43:32.328Z,62.88
2022-08-22T10:44:32.228Z,44.16
2022-08-22T10:45:36.759Z,81.97
2022-08-22T10:46:32.292Z,117.44
2022-08-22T10:47:32.224Z,41.59
2022-08-22T10:48:32.233Z,44.65
2022-08-22T10:49:32.229Z,48.56
2022-08-22T10:50:32.235Z,52.85
2022-08-22T10:51:32.685Z,65.94
2022-08-22T10:52:32.289Z,64.59
2022-08-22T10:53:32.225Z,47.22
2022-08-22T10:54:32.241Z,40.24
2022-08-22T10:55:32.201Z,39.88
2022-08-22T10:56:32.239Z,41.96
2022-08-22T10:57:32.192Z,174.81
2022-08-22T10:58:32.233Z,40.24
2022-08-22T10:59:32.262Z,40.73
2022-08-22T11:00:32.255Z,76.7
2022-08-22T11:01:38.613Z,56.76
2022-08-22T11:02:32.234Z,69.36
2022-08-22T11:03:32.229Z,63.73
2022-08-22T11:04:32.300Z,42.94
2022-08-22T11:05:32.207Z,71.07
2022-08-22T11:06:32.203Z,75.85
2022-08-22T11:07:32.266Z,64.59
2022-08-22T11:08:34.626Z,68.87
2022-08-22T11:09:36.857Z,78.9
2022-08-22T11:10:32.225Z,97.13
2022-08-22T11:11:33.243Z,195.98
2022-08-22T11:12:35.180Z,80.62
2022-08-22T11:13:32.202Z,341.81
2022-08-22T11:14:32.217Z,47.22
2022-08-22T11:15:35.180Z,55.9
2022-08-22T11:16:32.228Z,58.11
2022-08-22T11:17:34.608Z,48.93
2022-08-22T11:18:32.201Z,83.19
2022-08-22T11:19:32.208Z,56.76
2022-08-22T11:20:32.195Z,125.27
2022-08-22T11:21:32.216Z,103.61
2022-08-22T11:22:32.208Z,74.99
2022-08-22T11:23:32.243Z,244.67
2022-08-22T11:24:35.748Z,109.24
2022-08-22T11:25:38.615Z,47.22
2022-08-22T11:26:33.761Z,181.67
2022-08-22T11:27:38.309Z,47.22
2022-08-22T11:28:32.260Z,56.27
2022-08-22T11:29:32.194Z,317.46
2022-08-22T11:30:36.464Z,94.56
2022-08-22T11:31:36.486Z,97.5
2022-08-22T11:32:32.229Z,56.76
2022-08-22T11:33:46.322Z,671.5
2022-08-22T11:34:32.241Z,276.24
2022-08-22T11:35:32.242Z,508.43
2022-08-22T11:36:32.279Z,661.47
2022-08-22T11:37:43.005Z,149.12
2022-08-22T11:38:32.977Z,535.71
2022-08-22T11:39:32.194Z,635.53
2022-08-22T11:40:32.343Z,199.04
2022-08-22T11:41:32.229Z,169.56
2022-08-22T11:42:32.221Z,109.24
2022-08-22T11:43:32.512Z,159.53
2022-08-22T11:44:32.301Z,240.76
2022-08-22T11:45:32.212Z,147.05
2022-08-22T11:46:32.207Z,227.3
2022-08-22T11:47:32.258Z,215.92
2022-08-22T11:48:32.208Z,223.75
2022-08-22T11:49:32.681Z,286.63
2022-08-22T11:50:32.212Z,198.18
2022-08-22T11:51:34.156Z,209.07
2022-08-22T11:52:33.082Z,110.59
2022-08-22T11:53:37.016Z,215.92
2022-08-22T11:54:42.066Z,145.21
2022-08-22T11:55:45.054Z,114.51
2022-08-22T11:56:49.014Z,158.67
2022-08-22T11:57:53.037Z,145.7
2022-08-22T11:58:57.012Z,175.19
2022-08-22T12:00:02.349Z,140.93
2022-08-22T12:01:05.049Z,418.15
2022-08-22T12:02:09.066Z,549.53
2022-08-22T12:03:13.547Z,484.45
2022-08-22T12:04:17.100Z,502.31
2022-08-22T12:05:26.222Z,474.54
2022-08-22T12:06:25.027Z,509.28
2022-08-22T12:07:28.995Z,223.39
2022-08-22T12:08:32.235Z,425.49
2022-08-22T12:09:32.226Z,334.47
2022-08-22T12:10:32.239Z,173.47
2022-08-22T12:11:32.203Z,246.39
2022-08-22T12:12:32.320Z,221.67
2022-08-22T12:13:34.958Z,482.37
2022-08-22T12:14:32.220Z,87.59
2022-08-22T12:15:33.296Z,114.51
2022-08-22T12:16:32.217Z,122.34
2022-08-22T12:17:55.409Z,215.56
2022-08-22T12:18:32.297Z,479.31
2022-08-22T12:19:32.731Z,529.23
2022-08-22T12:20:32.223Z,88.45
2022-08-22T12:21:32.215Z,245.9
2022-08-22T12:22:32.224Z,141.42
2022-08-22T12:23:48.769Z,85.02
2022-08-22T12:24:32.291Z,80.25
2022-08-22T12:25:32.289Z,97.5
2022-08-22T12:26:32.188Z,45.51
2022-08-22T12:27:32.200Z,265.47
2022-08-22T12:28:32.317Z,514.06
2022-08-22T12:29:33.901Z,78.41
2022-08-22T12:30:32.268Z,163.93
2022-08-22T12:31:32.201Z,426.34
2022-08-22T12:32:32.235Z,94.56
2022-08-22T12:33:33.121Z,297.15
2022-08-22T12:34:32.193Z,151.82
2022-08-22T12:35:33.282Z,67.16
2022-08-22T12:36:32.217Z,140.93
2022-08-22T12:37:32.266Z,235.49
2022-08-22T12:38:35.971Z,361.74
2022-08-22T12:39:32.223Z,585.13
2022-08-22T12:40:32.320Z,488
2022-08-22T12:41:35.080Z,582.93
2022-08-22T12:42:32.211Z,204.3
2022-08-22T12:43:32.403Z,500.6
2022-08-22T12:44:32.217Z,576.45
2022-08-22T12:45:32.200Z,522.25
2022-08-22T12:46:32.191Z,577.79
2022-08-22T12:47:32.291Z,570.82
2022-08-22T12:48:32.225Z,476.25
2022-08-22T12:49:32.227Z,456.31
2022-08-22T12:50:32.198Z,477.6
2022-08-22T12:51:32.196Z,399.42
2022-08-22T12:52:32.185Z,253.73
2022-08-22T12:53:32.209Z,332.63
2022-08-22T12:54:32.181Z,417.66
2022-08-22T12:55:32.333Z,460.23
2022-08-22T12:56:32.206Z,496.2
2022-08-22T12:57:32.213Z,543.05
2022-08-22T12:58:33.985Z,538.28
2022-08-22T12:59:32.219Z,531.3
2022-08-22T13:00:32.301Z,527.88
2022-08-22T13:01:34.084Z,519.19
2022-08-22T13:02:32.161Z,508.79
2022-08-22T13:03:32.212Z,544.4
2022-08-22T13:04:33.401Z,463.65
2022-08-22T13:05:34.268Z,496.69
2022-08-22T13:06:32.244Z,495.34
2022-08-22T13:07:32.266Z,498.4
2022-08-22T13:08:32.240Z,502.68
2022-08-22T13:09:32.209Z,512.22
2022-08-22T13:10:32.216Z,447.62
2022-08-22T13:11:32.324Z,431.6
2022-08-22T13:12:32.203Z,445.91